Time;durP1;ratioP1;P1;durP2;ratioP2;P2;SDS_P1;SDS_P2;PMS_P1;PMS_P2;Temp;Humidity;BMP_temperature;BMP_pressure;BME280_temperature;BME280_humidity;BME280_pressure;Samples;Min_cycle;Max_cycle;Signal;HPM_P1;HPM_P2
2023/01/18 00:00:39;;;;;;;11.23;2.65;;;;;;;;;;5070981;28;20392;-74
2023/01/18 00:03:07;;;;;;;4.30;2.42;;;;;;;;;;5072213;28;20052;-75
2023/01/18 00:05:33;;;;;;;9.05;2.47;;;;;;;;;;5072250;28;20455;-74
2023/01/18 00:08:00;;;;;;;6.45;1.88;;;;;;;;;;5071087;28;20048;-74
2023/01/18 00:10:26;;;;;;;;;;;;;;;;;;5072886;28;20406;-74
2023/01/18 00:12:52;;;;;;;6.43;2.00;;;;;;;;;;5072306;28;19920;-74
2023/01/18 00:15:17;;;;;;;6.07;1.98;;;-0.10;99.90;;;;;;5071870;28;20044;-74
2023/01/18 00:17:50;;;;;;;9.48;3.13;;;;;;;;;;5072075;28;20040;-74
2023/01/18 00:20:18;;;;;;;5.53;2.10;;;0.50;99.90;;;;;;5072130;28;20059;-74
2023/01/18 00:22:44;;;;;;;7.90;2.45;;;;;;;;;;5072004;28;20040;-74
2023/01/18 00:25:10;;;;;;;6.97;2.20;;;;;;;;;;5071984;28;20052;-74
2023/01/18 00:27:37;;;;;;;8.68;1.90;;;;;;;;;;5071646;28;20129;-76
2023/01/18 00:30:04;;;;;;;6.05;2.10;;;;;;;;;;5071718;28;20060;-75
2023/01/18 00:32:30;;;;;;;6.90;2.78;;;;;;;;;;5071796;28;20044;-75
2023/01/18 00:34:56;;;;;;;7.53;2.60;;;;;;;;;;5070884;28;20049;-75
2023/01/18 00:37:28;;;;;;;8.27;3.00;;;-0.40;99.90;;;;;;5071782;28;20055;-75
2023/01/18 00:39:54;;;;;;;7.38;2.42;;;;;;;;;;5070438;28;20156;-75
2023/01/18 00:45:05;;;;;;;7.60;2.88;;;-0.60;99.90;;;;;;5071545;28;20048;-75
2023/01/18 00:47:31;;;;;;;5.35;2.90;;;;;;;;;;5071667;28;20489;-76
2023/01/18 00:49:57;;;;;;;4.93;2.55;;;;;;;;;;5070726;28;20503;-75
2023/01/18 00:52:23;;;;;;;5.72;2.88;;;;;;;;;;5053749;28;20489;-76
2023/01/18 00:54:49;;;;;;;5.57;3.13;;;;;;;;;;5071718;28;20455;-75
2023/01/18 00:57:15;;;;;;;6.90;3.30;;;;;;;;;;5071620;28;20075;-75
2023/01/18 00:59:41;;;;;;;6.25;2.88;;;;;;;;;;5071311;28;20397;-76
2023/01/18 01:02:07;;;;;;;8.35;3.47;;;;;;;;;;5070551;28;20052;-75
2023/01/18 01:07:18;;;;;;;9.63;3.42;;;;;;;;;;5071579;28;20140;-75
2023/01/18 01:09:45;;;;;;;10.00;4.53;;;;;;;;;;5071451;28;20048;-76
2023/01/18 01:26:02;;;;;;;8.05;3.58;;;;;;;;;;5071390;28;20048;-76
2023/01/18 01:28:28;;;;;;;10.20;4.00;;;;;;;;;;5070804;28;20068;-77
2023/01/18 01:30:59;;;;;;;9.23;3.65;;;;;;;;;;5070290;28;20055;-77
2023/01/18 01:33:25;;;;;;;12.60;4.40;;;;;;;;;;5071339;28;20056;-77
2023/01/18 01:35:55;;;;;;;11.38;4.13;;;;;;;;;;5071289;28;20052;-78
2023/01/18 01:38:21;;;;;;;8.85;4.18;;;;;;;;;;5071289;28;20045;-78
2023/01/18 01:41:01;;;;;;;7.32;4.30;;;;;;;;;;5070243;28;20049;-78
2023/01/18 01:43:37;;;;;;;9.13;4.53;;;;;;;;;;5070912;28;20059;-78
2023/01/18 01:46:03;;;;;;;11.80;4.47;;;;;;;;;;5071185;28;20048;-78
2023/01/18 01:48:30;;;;;;;9.35;4.32;;;;;;;;;;5070053;28;20044;-78
2023/01/18 01:50:56;;;;;;;;;;;;;;;;;;5070342;28;20495;-78
2023/01/18 01:53:22;;;;;;;8.23;4.03;;;;;;;;;;5073293;28;19924;-78
2023/01/18 01:55:48;;;;;;;9.10;4.03;;;;;;;;;;5074677;28;20400;-78
2023/01/18 01:58:18;;;;;;;12.85;4.10;;;;;;;;;;5074485;28;20132;-77
2023/01/18 02:00:44;;;;;;;8.23;3.70;;;;;;;;;;5073613;28;20135;-77
2023/01/18 02:03:11;;;;;;;8.80;4.28;;;;;;;;;;5074636;28;20044;-77
2023/01/18 02:05:45;;;;;;;10.98;4.20;;;;;;;;;;5074824;28;20048;-78
2023/01/18 02:08:12;;;;;;;8.32;4.00;;;;;;;;;;5074443;28;20546;-78
2023/01/18 02:10:38;;;;;;;13.48;4.15;;;;;;;;;;5074095;28;20551;-77
2023/01/18 02:13:08;;;;;;;12.02;3.80;;;;;;;;;;5074455;28;20047;-77
2023/01/18 02:15:38;;;;;;;9.77;4.00;;;;;;;;;;5074384;28;20088;-77
2023/01/18 02:18:08;;;;;;;8.30;4.10;;;;;;;;;;5073385;28;20059;-77
2023/01/18 02:21:04;;;;;;;9.95;4.45;;;-0.50;99.90;;;;;;5074190;28;20047;-76
2023/01/18 02:23:35;;;;;;;6.05;3.90;;;;;;;;;;5074128;28;20049;-76
2023/01/18 02:26:19;;;;;;;7.65;3.72;;;;;;;;;;5073883;28;20045;-76
2023/01/18 02:28:55;;;;;;;8.75;4.45;;;;;;;;;;5073869;28;20053;-76
2023/01/18 02:31:42;;;;;;;5.93;3.97;;;;;;;;;;5074044;28;20182;-75
2023/01/18 02:34:23;;;;;;;14.20;3.90;;;;;;;;;;5082432;28;20064;-76
2023/01/18 02:36:59;;;;;;;9.20;3.92;;;;;;;;;;5073860;28;20459;-76
2023/01/18 02:39:37;;;;;;;9.30;3.57;;;;;;;;;;5089762;28;20084;-75
2023/01/18 02:47:46;;;;;;;8.02;4.03;;;;;;;;;;5072602;28;20052;-75
2023/01/18 02:50:20;;;;;;;9.18;3.80;;;;;;;;;;5073638;28;20097;-75
2023/01/18 02:52:46;;;;;;;6.90;3.25;;;;;;;;;;5073651;28;20132;-75
2023/01/18 02:55:17;;;;;;;8.73;3.47;;;;;;;;;;5072232;28;20534;-76
2023/01/18 02:57:43;;;;;;;10.13;3.60;;;;;;;;;;5073576;28;20181;-75
2023/01/18 03:00:10;;;;;;;6.38;3.20;;;;;;;;;;5073517;28;20064;-74
2023/01/18 03:02:39;;;;;;;10.23;3.70;;;-0.40;99.90;;;;;;5073224;28;20072;-74
2023/01/18 03:05:08;;;;;;;9.02;3.50;;;;;;;;;;5073350;28;20058;-75
2023/01/18 03:07:40;;;;;;;12.70;3.67;;;;;;;;;;5073266;28;20044;-74
2023/01/18 03:10:07;;;;;;;9.90;3.15;;;;;;;;;;5071969;28;20048;-74
2023/01/18 03:12:44;;;;;;;8.18;3.50;;;;;;;;;;5073158;28;20044;-74
2023/01/18 03:15:11;;;;;;;;;;;;;;;;;;5072533;28;20110;-75
2023/01/18 03:17:40;;;;;;;12.70;3.35;;;;;;;;;;5073083;28;20260;-75
2023/01/18 03:20:10;;;;;;;8.98;3.80;;;;;;;;;;5073007;28;20056;-74
2023/01/18 03:25:32;;;;;;;7.15;3.28;;;-0.10;99.90;;;;;;5072950;28;20056;-73
2023/01/18 03:33:43;;;;;;;9.88;3.20;;;;;;;;;;5072873;28;20044;-74
2023/01/18 03:36:24;;;;;;;6.63;3.50;;;;;;;;;;5072734;28;20052;-74
2023/01/18 03:38:53;;;;;;;6.72;3.10;;;;;;;;;;5072469;28;20041;-74
2023/01/18 03:41:22;;;;;;;8.18;3.38;;;-0.10;99.90;;;;;;5071630;28;20135;-74
2023/01/18 03:43:49;;;;;;;5.40;3.45;;;;;;;;;;5072505;28;20055;-75
2023/01/18 03:46:18;;;;;;;8.98;3.95;;;-0.10;99.90;;;;;;5072635;28;20052;-74
2023/01/18 03:48:44;;;;;;;7.82;3.60;;;-0.20;99.90;;;;;;5071179;28;20438;-74
2023/01/18 03:51:18;;;;;;;7.47;4.00;;;;;;;;;;5054814;28;20088;-74
2023/01/18 03:53:51;;;;;;;4.97;3.63;;;;;;;;;;5072160;28;20417;-74
2023/01/18 03:56:29;;;;;;;13.00;3.42;;;;;;;;;;5072510;28;20052;-73
2023/01/18 03:58:56;;;;;;;;;;;-0.10;99.90;;;;;;5071627;28;20507;-74
2023/01/18 04:01:22;;;;;;;8.35;3.60;;;;;;;;;;5072544;28;20007;-73
2023/01/18 04:03:48;;;;;;;7.75;3.72;;;;;;;;;;5072426;28;20044;-74
2023/01/18 04:06:14;;;;;;;7.88;3.58;;;;;;;;;;5071308;28;20118;-74
2023/01/18 04:08:40;;;;;;;10.23;4.57;;;;;;;;;;5071860;28;20044;-74
2023/01/18 04:11:06;;;;;;;6.22;3.83;;;;;;;;;;5072139;28;20048;-74
2023/01/18 04:13:32;;;;;;;8.18;3.78;;;;;;;;;;5070696;28;20139;-73
2023/01/18 04:15:58;;;;;;;8.07;3.83;;;;;;;;;;5071765;28;20048;-74
2023/01/18 04:18:24;;;;;;;12.70;3.95;;;;;;;;;;5071048;28;20563;-75
2023/01/18 04:20:55;;;;;;;9.55;3.67;;;;;;;;;;5072044;28;20078;-74
2023/01/18 04:23:21;;;;;;;5.88;3.78;;;;;;;;;;5070672;28;20048;-74
2023/01/18 04:25:48;;;;;;;6.95;3.80;;;;;;;;;;5071907;28;20044;-73
2023/01/18 04:28:16;;;;;;;11.38;3.80;;;;;;;;;;5071449;28;20095;-75
2023/01/18 04:30:42;;;;;;;8.77;4.03;;;;;;;;;;5071878;28;20056;-74
2023/01/18 04:33:08;;;;;;;7.82;4.00;;;;;;;;;;5071915;28;20048;-74
2023/01/18 04:35:35;;;;;;;10.23;3.92;;;;;;;;;;5070519;28;20049;-74
2023/01/18 04:38:01;;;;;;;8.45;3.67;;;;;;;;;;5072057;28;20051;-74
2023/01/18 04:40:27;;;;;;;12.40;4.20;;;;;;;;;;5071835;28;20057;-74
2023/01/18 04:42:53;;;;;;;6.78;3.40;;;;;;;;;;5071705;28;20047;-73
2023/01/18 04:45:20;;;;;;;8.70;3.92;;;;;;;;;;5071706;28;20048;-74
2023/01/18 04:47:46;;;;;;;9.68;4.13;;;;;;;;;;5071684;28;20079;-74
2023/01/18 04:50:12;;;;;;;10.85;4.85;;;;;;;;;;5070440;28;20484;-73
2023/01/18 04:52:38;;;;;;;8.73;4.07;;;;;;;;;;5071676;28;20044;-73
2023/01/18 04:55:04;;;;;;;10.15;4.10;;;;;;;;;;5070605;28;20052;-73
2023/01/18 04:57:31;;;;;;;7.75;4.22;;;;;;;;;;5071657;28;20145;-73
2023/01/18 04:59:59;;;;;;;8.38;4.20;;;;;;;;;;5071557;28;20052;-73
2023/01/18 05:02:25;;;;;;;8.10;4.60;;;;;;;;;;5071557;28;20101;-73
2023/01/18 05:04:51;;;;;;;6.72;4.30;;;;;;;;;;5071181;28;20155;-73
2023/01/18 05:07:17;;;;;;;13.40;4.50;;;;;;;;;;5071566;28;20072;-73
2023/01/18 05:09:43;;;;;;;9.85;4.93;;;;;;;;;;5071471;28;20048;-73
2023/01/18 05:12:09;;;;;;;9.65;4.78;;;;;;;;;;5071631;28;20149;-74
2023/01/18 05:14:35;;;;;;;9.50;4.75;;;;;;;;;;5071507;28;20047;-74
2023/01/18 05:17:01;;;;;;;8.52;4.65;;;;;;;;;;5070073;28;20542;-73
2023/01/18 05:19:29;;;;;;;13.90;4.75;;;;;;;;;;5071131;28;20136;-73
2023/01/18 05:21:55;;;;;;;19.35;5.22;;;;;;;;;;5071440;28;20052;-73
2023/01/18 05:24:21;;;;;;;10.52;5.15;;;;;;;;;;5070366;28;20048;-73
2023/01/18 05:26:47;;;;;;;12.32;5.90;;;;;;;;;;5072261;28;20059;-72
2023/01/18 05:29:13;;;;;;;10.13;5.38;;;;;;;;;;5075045;28;20060;-73
2023/01/18 05:31:40;;;;;;;11.23;5.38;;;;;;;;;;5074105;28;20468;-73
2023/01/18 05:34:06;;;;;;;10.40;6.05;;;;;;;;;;5073722;28;20484;-72
2023/01/18 05:36:32;;;;;;;12.43;6.40;;;;;;;;;;5075023;28;20480;-73
2023/01/18 05:38:58;;;;;;;10.02;5.60;;;;;;;;;;5075008;28;20147;-72
2023/01/18 05:41:24;;;;;;;11.30;6.63;;;;;;;;;;5074944;28;20044;-74
2023/01/18 05:43:51;;;;;;;11.48;5.95;;;;;;;;;;5074979;28;20044;-72
2023/01/18 05:46:17;;;;;;;12.95;5.90;;;;;;;;;;5073762;28;20040;-72
2023/01/18 05:48:43;;;;;;;20.67;6.15;;;;;;;;;;5074461;28;20554;-72
2023/01/18 05:51:10;;;;;;;16.85;6.50;;;;;;;;;;5074819;28;20396;-72
2023/01/18 05:53:36;;;;;;;16.00;6.18;;;;;;;;;;5073696;28;20087;-72
2023/01/18 05:56:04;;;;;;;16.77;6.82;;;;;;;;;;5074879;28;20547;-72
2023/01/18 05:58:30;;;;;;;17.35;6.60;;;;;;;;;;5074674;28;20049;-74
2023/01/18 06:00:56;;;;;;;12.50;6.57;;;;;;;;;;5074606;28;20049;-72
2023/01/18 06:03:22;;;;;;;15.20;6.25;;;;;;;;;;5073364;28;20053;-72
2023/01/18 06:05:50;;;;;;;16.13;5.82;;;;;;;;;;5073496;28;20362;-72
2023/01/18 06:08:16;;;;;;;17.38;6.03;;;;;;;;;;5074390;28;20048;-73
2023/01/18 06:10:43;;;;;;;14.93;6.75;;;;;;;;;;5074346;28;20049;-72
2023/01/18 06:13:09;;;;;;;14.32;6.60;;;;;;;;;;5073333;28;20135;-72
2023/01/18 06:15:35;;;;;;;;;;;;;;;;;;5074370;28;20492;-72
2023/01/18 06:18:02;;;;;;;13.30;6.43;;;;;;;;;;5072902;28;19924;-72
2023/01/18 06:20:29;;;;;;;11.60;5.68;;;;;;;;;;5074175;28;20044;-72
2023/01/18 06:22:58;;;;;;;13.32;6.47;;;;;;;;;;5074207;28;20068;-72
2023/01/18 06:25:24;;;;;;;8.50;5.70;;;;;;;;;;5074097;28;20495;-72
2023/01/18 06:27:51;;;;;;;10.38;5.72;;;;;;;;;;5073893;28;20048;-72
2023/01/18 06:30:18;;;;;;;11.23;6.45;;;;;;;;;;5070761;28;20064;-75
2023/01/18 06:32:44;;;;;;;12.73;5.90;;;;;;;;;;5061084;28;20064;-72
2023/01/18 06:35:10;;;;;;;14.13;5.65;;;;;;;;;;5073710;28;20534;-71
2023/01/18 06:37:36;;;;;;;13.50;5.90;;;;;;;;;;5072085;28;20066;-71
2023/01/18 06:40:02;;;;;;;12.45;6.15;;;;;;;;;;5064438;28;20045;-71
2023/01/18 06:42:28;;;;;;;10.40;5.80;;;;;;;;;;5068434;28;20049;-72
2023/01/18 06:44:54;;;;;;;11.77;6.20;;;;;;;;;;5071938;28;20045;-72
2023/01/18 06:47:20;;;;;;;10.57;5.88;;;;;;;;;;5073663;28;20080;-72
2023/01/18 06:49:47;;;;;;;14.93;6.40;;;;;;;;;;5060930;28;20389;-71
2023/01/18 06:52:13;;;;;;;13.07;6.45;;;;;;;;;;5070291;28;20591;-72
2023/01/18 06:54:39;;;;;;;10.93;6.43;;;;;;;;;;5069675;28;20484;-74
2023/01/18 06:57:05;;;;;;;14.60;6.88;;;;;;;;;;5066293;28;20056;-73
2023/01/18 06:59:32;;;;;;;14.25;6.38;;;;;;;;;;5072791;28;20040;-72
2023/01/18 07:01:58;;;;;;;14.02;6.95;;;;;;;;;;5071263;28;20092;-75
2023/01/18 07:04:24;;;;;;;15.60;7.00;;;;;;;;;;5091688;28;20059;-73
2023/01/18 07:06:50;;;;;;;14.68;7.53;;;;;;;;;;5081867;28;20114;-74
2023/01/18 07:09:16;;;;;;;14.70;7.45;;;;;;;;;;5053227;28;20091;-71
2023/01/18 07:11:42;;;;;;;11.40;7.20;;;;;;;;;;5052814;28;20056;-69
2023/01/18 07:14:11;;;;;;;13.30;6.93;;;;;;;;;;5066734;28;20048;-71
2023/01/18 07:16:37;;;;;;;18.60;7.93;;;;;;;;;;5071919;28;20059;-72
2023/01/18 07:19:03;;;;;;;13.82;6.90;;;;;;;;;;5073000;28;20072;-72
2023/01/18 07:21:30;;;;;;;17.05;7.88;;;;;;;;;;5068050;28;20044;-73
2023/01/18 07:23:57;;;;;;;;;;;-0.80;99.90;;;;;;5049792;28;20049;-73
2023/01/18 07:26:23;;;;;;;13.63;8.30;;;;;;;;;;5055182;28;20332;-72
2023/01/18 07:28:49;;;;;;;;;;;;;;;;;;5072953;28;20064;-72
2023/01/18 07:31:16;;;;;;;17.02;6.95;;;;;;;;;;5071811;28;20451;-73
2023/01/18 07:33:43;;;;;;;14.77;7.68;;;;;;;;;;5072586;28;20083;-71
2023/01/18 07:36:09;;;;;;;13.52;8.00;;;;;;;;;;5069545;28;20119;-72
2023/01/18 07:38:36;;;;;;;18.35;8.93;;;;;;;;;;5071619;28;20053;-73
2023/01/18 07:41:04;;;;;;;16.55;8.70;;;;;;;;;;5072554;28;20472;-72
2023/01/18 07:43:31;;;;;;;13.98;7.40;;;;;;;;;;5072482;28;20094;-72
2023/01/18 07:45:57;;;;;;;18.15;8.35;;;;;;;;;;5072395;28;20102;-71
2023/01/18 07:48:24;;;;;;;14.48;8.18;;;;;;;;;;5072228;28;20092;-72
2023/01/18 07:50:57;;;;;;;13.90;8.07;;;;;;;;;;5070652;28;20044;-72
2023/01/18 07:53:24;;;;;;;16.17;7.97;;;;;;;;;;5072258;28;20046;-73
2023/01/18 07:55:50;;;;;;;16.70;7.22;;;;;;;;;;5071024;28;20056;-72
2023/01/18 07:58:16;;;;;;;16.42;8.95;;;;;;;;;;5072311;28;20396;-73
2023/01/18 08:00:42;;;;;;;;;;;;;;;;;;5072393;28;20044;-72
2023/01/18 08:03:15;;;;;;;15.95;8.75;;;;;;;;;;5072269;28;20275;-72
2023/01/18 08:05:41;;;;;;;13.73;8.77;;;;;;;;;;5072138;28;20052;-74
2023/01/18 08:08:11;;;;;;;;;;;0.00;99.90;;;;;;5072527;28;20469;-72
2023/01/18 08:10:38;;;;;;;13.23;8.77;;;;;;;;;;5072073;28;19947;-73
2023/01/18 08:13:04;;;;;;;;;;;-0.40;99.90;;;;;;5072186;28;20044;-72
2023/01/18 08:15:30;;;;;;;17.02;8.40;;;;;;;;;;5072034;28;19920;-72
2023/01/18 08:17:56;;;;;;;15.38;8.85;;;;;;;;;;5070660;28;20063;-72
2023/01/18 08:20:23;;;;;;;17.63;8.50;;;;;;;;;;5071913;28;20051;-72
2023/01/18 08:22:55;;;;;;;17.20;8.82;;;;;;;;;;5070892;28;20494;-73
2023/01/18 08:25:21;;;;;;;16.65;7.88;;;;;;;;;;5071927;28;20160;-72
2023/01/18 08:27:47;;;;;;;15.25;8.57;;;;;;;;;;5071464;28;20056;-72
2023/01/18 08:30:13;;;;;;;17.70;8.68;;;;;;;;;;5071781;28;20113;-73
2023/01/18 08:32:40;;;;;;;19.40;8.40;;;;;;;;;;5071872;28;20044;-72
2023/01/18 08:35:06;;;;;;;14.57;8.27;;;;;;;;;;5071798;28;20044;-73
2023/01/18 08:37:32;;;;;;;16.15;8.35;;;;;;;;;;5070757;28;20131;-73
2023/01/18 08:39:58;;;;;;;15.60;8.15;;;;;;;;;;5071839;28;20397;-73
2023/01/18 08:42:25;;;;;;;15.27;8.52;;;;;;;;;;5071490;28;20440;-73
2023/01/18 08:44:52;;;;;;;19.10;8.93;;;;;;;;;;5070413;28;20044;-72
2023/01/18 08:47:18;;;;;;;16.88;8.15;;;;;;;;;;5071645;28;20048;-73
2023/01/18 08:49:45;;;;;;;17.70;8.77;;;;;;;;;;5071617;28;20370;-74
2023/01/18 08:52:14;;;;;;;17.73;9.60;;;;;;;;;;5071658;28;20044;-74
2023/01/18 08:54:40;;;;;;;16.67;9.13;;;;;;;;;;5070499;28;20144;-74
2023/01/18 08:57:08;;;;;;;14.60;8.45;;;;;;;;;;5071355;28;20048;-74
2023/01/18 08:59:34;;;;;;;16.88;8.40;;;;;;;;;;5053473;28;20045;-74
2023/01/18 09:02:00;;;;;;;16.45;7.75;;;;;;;;;;5074720;28;20075;-73
2023/01/18 09:04:28;;;;;;;15.52;8.65;;;;;;;;;;5075630;28;20087;-74
2023/01/18 09:06:54;;;;;;;15.32;8.35;;;;;;;;;;5075527;28;20101;-73
2023/01/18 09:09:20;;;;;;;20.30;8.90;;;;;;;;;;5075393;28;20041;-75
2023/01/18 09:11:51;;;;;;;12.82;7.88;;;;;;;;;;5075201;28;20045;-74
2023/01/18 09:14:17;;;;;;;15.65;9.43;;;;;;;;;;5075508;28;20129;-74
2023/01/18 09:16:43;;;;;;;16.92;7.95;;;;;;;;;;5075395;28;20052;-74
2023/01/18 09:19:09;;;;;;;18.13;8.88;;;;;;;;;;5075324;28;20076;-75
2023/01/18 09:21:35;;;;;;;16.60;9.32;;;;;;;;;;5075283;28;20489;-75
2023/01/18 09:24:01;;;;;;;12.23;8.13;;;;;;;;;;5074950;28;20571;-75
2023/01/18 09:26:29;;;;;;;14.82;8.38;;;;;;;;;;5074957;28;20509;-75
2023/01/18 09:28:55;;;;;;;15.68;8.98;;;;;;;;;;5074870;28;20397;-75
2023/01/18 09:31:22;;;;;;;13.65;7.55;;;;;;;;;;5075080;28;20508;-74
2023/01/18 09:33:48;;;;;;;14.52;8.23;;;;;;;;;;5075051;28;20106;-75
2023/01/18 09:36:14;;;;;;;12.32;7.70;;;;;;;;;;5075076;28;20396;-75
2023/01/18 09:38:41;;;;;;;12.02;7.53;;;;;;;;;;5075008;28;20063;-74
2023/01/18 09:41:19;;;;;;;13.13;7.15;;;;;;;;;;5074647;28;20416;-75
2023/01/18 09:43:49;;;;;;;12.35;7.30;;;;;;;;;;5073869;28;20048;-75
2023/01/18 09:46:20;;;;;;;14.35;7.68;;;;;;;;;;5074927;28;20045;-75
2023/01/18 09:48:52;;;;;;;13.68;7.55;;;;;;;;;;5074658;28;20037;-75
2023/01/18 09:51:41;;;;;;;15.95;7.75;;;;;;;;;;5074746;28;20048;-75
2023/01/18 09:54:17;;;;;;;18.35;7.82;;;1.30;99.90;;;;;;5054734;28;20060;-75
2023/01/18 09:56:54;;;;;;;12.00;7.30;;;;;;;;;;5074398;28;20048;-75
2023/01/18 09:59:22;;;;;;;;;;;1.20;99.90;;;;;;5075027;28;20036;-75
2023/01/18 10:01:50;;;;;;;13.65;6.93;;;1.50;99.90;;;;;;5073114;28;19932;-75
2023/01/18 10:04:43;;;;;;;14.65;7.65;;;1.60;99.90;;;;;;5074536;28;20401;-75
2023/01/18 10:07:15;;;;;;;11.82;7.20;;;1.70;99.90;;;;;;5073518;28;20048;-76
2023/01/18 10:09:48;;;;;;;14.50;7.60;;;1.80;99.90;;;;;;5074080;28;20465;-75
2023/01/18 10:12:28;;;;;;;11.88;7.00;;;2.00;99.90;;;;;;5072607;28;20053;-76
2023/01/18 10:15:16;;;;;;;10.45;6.72;;;2.20;99.90;;;;;;5074374;28;20044;-75
2023/01/18 10:17:43;;;;;;;10.88;6.47;;;;;;;;;;5074281;28;20393;-75
2023/01/18 10:20:23;;;;;;;12.07;7.50;;;1.90;99.90;;;;;;5074500;28;20135;-75
2023/01/18 10:22:55;;;;;;;11.43;6.40;;;1.90;99.90;;;;;;5074156;28;20492;-76
2023/01/18 10:25:33;;;;;;;12.90;6.65;;;1.70;99.90;;;;;;5072940;28;20106;-76
2023/01/18 10:28:23;;;;;;;13.38;6.55;;;;;;;;;;5074016;28;20049;-77
2023/01/18 10:31:14;;;;;;;17.23;6.70;;;;;;;;;;5073983;28;20053;-77
2023/01/18 10:33:42;;;;;;;13.80;6.82;;;;;;;;;;5073648;28;20552;-77
2023/01/18 10:36:19;;;;;;;10.93;6.60;;;;;;;;;;5071741;28;20519;-78
2023/01/18 10:38:46;;;;;;;15.75;6.72;;;2.30;99.90;;;;;;5071745;28;20135;-79
2023/01/18 10:41:26;;;;;;;11.07;6.32;;;;;;;;;;5073666;28;20076;-77
2023/01/18 10:43:53;;;;;;;12.50;5.80;;;2.70;99.90;;;;;;5072570;28;20052;-78
2023/01/18 10:46:19;;;;;;;;;;;2.80;99.90;;;;;;5072909;28;20055;-78
2023/01/18 10:48:50;;;;;;;10.75;5.90;;;;;;;;;;5072610;28;19920;-80
2023/01/18 10:51:34;;;;;;;11.65;5.97;;;;;;;;;;5055866;28;20102;-79
2023/01/18 10:54:20;;;;;;;13.88;6.47;;;;;;;;;;5073378;28;20049;-78
2023/01/18 10:56:47;;;;;;;12.55;6.30;;;;;;;;;;5072579;28;20444;-79
2023/01/18 10:59:23;;;;;;;9.07;6.07;;;;;;;;;;5072532;28;20159;-79
2023/01/18 11:01:52;;;;;;;13.90;6.43;;;;;;;;;;5072546;28;20051;-77
2023/01/18 11:04:24;;;;;;;9.43;5.55;;;;;;;;;;5072315;28;20435;-79
2023/01/18 11:07:02;;;;;;;10.05;5.55;;;2.80;99.90;;;;;;5072253;28;20047;-77
2023/01/18 11:09:48;;;;;;;11.18;5.88;;;;;;;;;;5072132;28;20057;-76
2023/01/18 11:12:40;;;;;;;10.32;5.65;;;;;;;;;;5068996;28;20149;-77
2023/01/18 11:15:12;;;;;;;11.93;5.68;;;;;;;;;;5071677;28;20067;-77
2023/01/18 11:17:55;;;;;;;13.88;5.78;;;3.20;99.90;;;;;;5072063;28;20396;-76
2023/01/18 11:20:29;;;;;;;9.20;5.25;;;;;;;;;;5072014;28;20386;-76
2023/01/18 11:23:01;;;;;;;9.43;6.00;;;3.20;99.90;;;;;;5072566;28;20668;-76
2023/01/18 11:25:41;;;;;;;10.02;6.00;;;;;;;;;;5088788;28;20056;-78
2023/01/18 11:28:16;;;;;;;10.15;5.20;;;;;;;;;;5071538;28;20101;-79
2023/01/18 11:31:09;;;;;;;10.25;5.72;;;3.30;99.90;;;;;;5072948;28;20092;-76
2023/01/18 11:33:53;;;;;;;8.77;5.25;;;3.30;99.90;;;;;;5055799;28;20056;-76
2023/01/18 11:36:32;;;;;;;10.20;5.85;;;;;;;;;;5073050;28;20041;-76
2023/01/18 11:39:25;;;;;;;8.43;5.45;;;3.20;99.90;;;;;;5076942;28;20046;-75
2023/01/18 11:42:12;;;;;;;9.45;5.45;;;3.80;99.90;;;;;;5076861;28;20106;-77
2023/01/18 11:44:38;;;;;;;;;;;;;;;;;;5059209;28;20040;-76
2023/01/18 11:47:08;;;;;;;10.27;4.78;;;3.50;99.90;;;;;;5075099;28;19931;-76
2023/01/18 11:49:48;;;;;;;11.45;5.93;;;;;;;;;;5076401;28;20045;-76
2023/01/18 11:52:41;;;;;;;8.60;4.88;;;4.00;99.90;;;;;;5075806;28;20139;-76
2023/01/18 11:55:24;;;;;;;9.25;5.45;;;3.80;99.90;;;;;;5072580;28;20056;-75
2023/01/18 11:57:51;;;;;;;11.07;4.50;;;4.00;99.90;;;;;;5072511;28;20095;-76
2023/01/18 12:00:18;;;;;;;11.00;5.38;;;3.90;99.90;;;;;;5072434;28;20147;-75
2023/01/18 12:03:16;;;;;;;7.80;4.75;;;3.60;99.90;;;;;;5072600;28;20751;-76
2023/01/18 12:05:48;;;;;;;9.23;4.28;;;;;;;;;;5071944;28;20105;-75
2023/01/18 12:08:30;;;;;;;11.63;4.80;;;4.30;99.90;;;;;;5072207;28;20048;-76
2023/01/18 12:11:08;;;;;;;10.77;4.95;;;4.10;99.90;;;;;;5072331;28;20059;-75
2023/01/18 12:14:04;;;;;;;7.53;4.80;;;3.90;99.90;;;;;;5071261;28;20056;-77
2023/01/18 12:17:07;;;;;;;9.52;5.55;;;4.20;99.90;;;;;;5071168;28;20064;-75
2023/01/18 12:19:46;;;;;;;14.32;5.57;;;4.00;99.90;;;;;;5071632;28;20485;-74
2023/01/18 12:22:21;;;;;;;15.02;5.35;;;4.20;99.90;;;;;;5071790;28;20519;-75
2023/01/18 12:24:52;;;;;;;17.73;5.70;;;4.10;99.90;;;;;;5072070;28;20428;-75
2023/01/18 12:27:45;;;;;;;9.68;5.40;;;;;;;;;;5070746;28;20131;-74
2023/01/18 12:30:46;;;;;;;9.40;5.45;;;4.50;99.90;;;;;;5085337;28;20056;-75
2023/01/18 12:33:24;;;;;;;11.27;4.68;;;;;;;;;;5071932;28;20133;-74
2023/01/18 12:36:06;;;;;;;7.03;4.60;;;4.40;99.90;;;;;;5071250;28;20094;-76
2023/01/18 12:38:33;;;;;;;12.40;4.78;;;4.30;99.90;;;;;;5071691;28;20044;-75
2023/01/18 12:41:30;;;;;;;8.25;4.95;;;3.90;99.90;;;;;;5071888;28;20135;-75
2023/01/18 12:44:31;;;;;;;5.60;4.00;;;4.00;99.90;;;;;;5071939;28;20048;-75
2023/01/18 12:47:35;;;;;;;7.40;4.07;;;4.00;99.90;;;;;;5071524;28;20896;-75
2023/01/18 12:50:18;;;;;;;13.85;4.82;;;3.50;99.90;;;;;;5059570;28;20056;-75
2023/01/18 12:52:50;;;;;;;13.88;4.35;;;3.90;99.90;;;;;;5071850;28;20055;-74
2023/01/18 12:55:20;;;;;;;13.25;3.80;;;3.60;99.90;;;;;;5071886;28;20053;-76
2023/01/18 12:57:53;;;;;;;9.82;4.25;;;4.10;99.90;;;;;;5071783;28;20044;-75
2023/01/18 13:00:42;;;;;;;8.70;4.05;;;3.70;99.90;;;;;;5070736;28;20067;-75
2023/01/18 13:03:17;;;;;;;11.38;4.20;;;;;;;;;;5070989;28;20053;-76
2023/01/18 13:06:00;;;;;;;10.13;4.45;;;3.70;99.90;;;;;;5071699;28;20091;-75
2023/01/18 13:08:41;;;;;;;6.78;4.20;;;;;;;;;;5070421;28;20402;-76
2023/01/18 13:11:18;;;;;;;5.20;3.75;;;3.90;99.90;;;;;;5071631;28;20058;-75
2023/01/18 13:13:45;;;;;;;10.45;3.75;;;3.60;99.90;;;;;;5071691;28;20048;-75
2023/01/18 13:16:21;;;;;;;7.35;3.90;;;3.60;99.90;;;;;;5070189;28;20052;-77
2023/01/18 13:19:02;;;;;;;9.53;4.00;;;3.60;99.90;;;;;;5071413;28;20095;-75
2023/01/18 13:21:28;;;;;;;9.40;4.30;;;;;;;;;;5071645;28;20045;-76
2023/01/18 13:23:54;;;;;;;8.85;4.20;;;;;;;;;;5071494;28;20123;-76
2023/01/18 13:26:30;;;;;;;8.48;3.88;;;3.70;99.90;;;;;;5071589;28;20060;-77
2023/01/18 13:29:21;;;;;;;7.70;4.03;;;3.50;99.90;;;;;;5070476;28;20052;-76
2023/01/18 13:31:48;;;;;;;6.82;4.03;;;3.70;99.90;;;;;;5071548;28;20055;-77
2023/01/18 13:34:37;;;;;;;8.55;4.03;;;3.50;99.90;;;;;;5070101;28;20049;-77
2023/01/18 13:37:08;;;;;;;10.63;4.50;;;3.50;99.90;;;;;;5064694;28;20056;-76
2023/01/18 13:39:43;;;;;;;11.85;4.30;;;;;;;;;;5070401;28;20052;-77
2023/01/18 13:42:24;;;;;;;8.45;4.03;;;3.40;99.90;;;;;;5071357;28;20063;-76
2023/01/18 13:45:06;;;;;;;5.85;4.43;;;;;;;;;;5070053;28;20037;-76
2023/01/18 13:47:40;;;;;;;8.18;4.13;;;;;;;;;;5071597;28;20430;-76
2023/01/18 13:50:27;;;;;;;9.75;4.28;;;3.60;99.90;;;;;;5075050;28;20144;-79
2023/01/18 13:53:23;;;;;;;9.15;4.53;;;;;;;;;;5073866;28;20088;-77
2023/01/18 13:56:03;;;;;;;11.18;4.70;;;3.40;99.90;;;;;;5069888;28;20051;-77
2023/01/18 13:58:32;;;;;;;9.25;4.78;;;3.40;99.90;;;;;;5074998;28;20045;-77
2023/01/18 14:01:04;;;;;;;8.05;4.35;;;3.70;99.90;;;;;;5073684;28;20052;-77
2023/01/18 14:03:33;;;;;;;8.88;3.95;;;;;;;;;;5073595;28;20045;-75
2023/01/18 14:06:03;;;;;;;7.57;4.22;;;;;;;;;;5074628;28;20041;-77
2023/01/18 14:08:31;;;;;;;9.00;4.20;;;3.50;99.90;;;;;;5073607;28;20049;-76
2023/01/18 14:11:07;;;;;;;8.30;4.00;;;3.40;99.90;;;;;;5074632;28;20053;-77
2023/01/18 14:13:44;;;;;;;8.65;4.07;;;3.40;99.90;;;;;;5074451;28;20105;-77
2023/01/18 14:16:28;;;;;;;8.85;4.20;;;3.40;99.90;;;;;;5074249;28;20055;-77
2023/01/18 14:19:05;;;;;;;10.10;4.03;;;;;;;;;;5074347;28;20084;-75
2023/01/18 14:22:06;;;;;;;11.82;4.57;;;3.60;99.90;;;;;;5074439;28;20441;-76
2023/01/18 14:25:10;;;;;;;8.32;4.07;;;3.50;99.90;;;;;;5074075;28;20123;-76
2023/01/18 14:27:42;;;;;;;12.07;4.82;;;3.60;99.90;;;;;;5074220;28;20052;-77
2023/01/18 14:30:19;;;;;;;9.55;5.03;;;3.80;99.90;;;;;;5073900;28;20056;-75
2023/01/18 14:33:14;;;;;;;8.88;3.92;;;3.60;99.90;;;;;;5073095;28;20135;-74
2023/01/18 14:35:50;;;;;;;8.68;4.43;;;3.90;99.90;;;;;;5074053;28;20054;-75
2023/01/18 14:38:16;;;;;;;10.50;5.18;;;3.70;99.90;;;;;;5073099;28;20092;-78
2023/01/18 14:40:45;;;;;;;10.23;4.95;;;3.50;99.90;;;;;;5074097;28;20040;-73
2023/01/18 14:43:17;;;;;;;11.80;5.25;;;3.90;99.90;;;;;;5056228;28;20052;-74
2023/01/18 14:45:53;;;;;;;14.70;5.50;;;3.80;99.90;;;;;;5073764;28;20117;-75
2023/01/18 14:48:22;;;;;;;12.67;5.53;;;3.20;99.90;;;;;;5073882;28;20458;-73
2023/01/18 14:50:51;;;;;;;13.00;5.70;;;3.50;99.90;;;;;;5073872;28;20084;-70
2023/01/18 14:53:25;;;;;;;13.18;5.35;;;;;;;;;;5073742;28;20057;-71
2023/01/18 14:56:24;;;;;;;12.40;5.80;;;;;;;;;;5072644;28;20065;-75
2023/01/18 14:59:04;;;;;;;6.78;4.57;;;;;;;;;;5049580;28;20561;-72
2023/01/18 15:01:35;;;;;;;10.65;4.53;;;;;;;;;;5073646;28;20052;-73
2023/01/18 15:04:04;;;;;;;10.68;2.72;;;3.40;99.90;;;;;;5066625;28;20119;-73
2023/01/18 15:06:41;;;;;;;10.98;2.72;;;;;;;;;;5073362;28;20041;-74